Time;durP1;ratioP1;P1;durP2;ratioP2;P2;SDS_P1;SDS_P2;PMS_P1;PMS_P2;Temp;Humidity;BMP_temperature;BMP_pressure;BME280_temperature;BME280_humidity;BME280_pressure;Samples;Min_cycle;Max_cycle;Signal;HPM_P1;HPM_P2
2022/06/10 00:03:40;;;;;;;;;;;;;;;;;;;;;
2022/06/10 00:06:53;;;;;;;4.47;4.12;;;;;;;23.69;59.64;99770.52;1980386;97;25901;-79
2022/06/10 00:10:29;;;;;;;5.53;5.12;;;;;;;23.62;59.80;99770.30;1984234;97;25998;-78
2022/06/10 00:14:12;;;;;;;4.50;4.20;;;;;;;23.62;59.85;99780.09;2001299;93;26849;-79
2022/06/10 00:18:05;;;;;;;4.60;4.30;;;;;;;23.58;59.88;99776.68;2031656;95;25827;-78
2022/06/10 00:26:25;;;;;;;;;;;;;;;;;;;;;
2022/06/10 00:34:35;;;;;;;4.72;4.42;;;;;;;23.61;59.81;99787.20;1821772;106;25848;-78
2022/06/10 00:39:23;;;;;;;;;;;;;;;;;;;;;
2022/06/10 00:42:48;;;;;;;4.85;4.47;;;;;;;23.54;59.94;99801.22;1822100;108;25826;-76
2022/06/10 00:46:40;;;;;;;5.00;4.70;;;;;;;23.46;60.08;99810.44;1815419;108;25952;-76
2022/06/10 00:50:29;;;;;;;5.62;4.95;;;;;;;23.41;60.17;99829.68;1821750;107;25861;-79
2022/06/10 00:54:22;;;;;;;5.17;4.67;;;;;;;23.26;60.44;99831.14;1763929;110;25848;-78
2022/06/10 00:57:50;;;;;;;7.08;6.15;;;;;;;23.20;60.63;99832.69;1813718;106;25925;-78
2022/06/10 01:01:34;;;;;;;5.17;4.85;;;;;;;23.18;60.87;99832.73;1872539;103;25937;-78
2022/06/10 01:05:26;;;;;;;7.85;5.17;;;;;;;23.17;61.00;99835.46;1876493;103;25848;-78
2022/06/10 01:08:57;;;;;;;7.28;5.10;;;;;;;23.17;61.04;99830.14;1883592;103;25937;-78
2022/06/10 01:17:47;;;;;;;5.03;4.72;;;;;;;23.04;61.12;99829.72;1897843;102;25973;-78
2022/06/10 01:21:51;;;;;;;5.05;4.75;;;;;;;22.97;61.52;99827.74;1907232;100;25855;-78
2022/06/10 01:26:12;;;;;;;6.37;4.80;;;;;;;22.95;61.57;99830.04;1865577;103;25985;-78
2022/06/10 01:30:22;;;;;;;5.70;5.28;;;;;;;22.85;61.67;99828.17;1928636;98;25963;-78
2022/06/10 01:34:23;;;;;;;5.95;5.45;;;;;;;22.78;61.95;99830.17;1979787;99;25869;-77
2022/06/10 01:38:38;;;;;;;6.95;5.20;;;;;;;22.77;62.10;99840.37;1975900;99;25995;-78
2022/06/10 01:42:34;;;;;;;7.53;5.33;;;;;;;22.77;62.09;99839.52;1972890;98;26117;-78
2022/06/10 01:46:44;;;;;;;;;;;;;;;;;;;;;
2022/06/10 01:50:59;;;;;;;6.80;6.03;;;;;;;22.76;62.19;99849.28;2001233;96;25784;-78
2022/06/10 01:55:08;;;;;;;;;;;;;;;;;;;;;
2022/06/10 02:07:35;;;;;;;10.98;5.40;;;;;;;22.49;62.81;99860.86;1899779;102;26083;-78
2022/06/10 02:16:00;;;;;;;;;;;;;;;;;;;;;
2022/06/10 02:20:04;;;;;;;6.72;6.12;;;;;;;22.16;63.50;99879.63;1884376;102;25959;-77
2022/06/10 02:27:28;;;;;;;6.55;6.03;;;;;;;21.95;63.93;99878.49;1787447;105;25846;-78
2022/06/10 02:31:44;;;;;;;7.12;6.03;;;;;;;21.93;64.11;99880.31;1774844;108;26017;-78
2022/06/10 02:35:48;;;;;;;6.80;6.35;;;;;;;21.95;64.22;99878.95;1776461;108;25788;-78
2022/06/10 02:49:44;;;;;;;6.58;6.08;;;;;;;21.73;64.90;99882.70;1900843;101;25934;-78
2022/06/10 02:53:28;;;;;;;5.72;5.33;;;;;;;21.71;64.96;99888.08;1847596;104;25660;-78
2022/06/10 03:02:01;;;;;;;9.40;6.22;;;;;;;21.71;64.91;99907.97;1891083;101;26010;-78
2022/06/10 03:05:52;;;;;;;8.45;6.55;;;;;;;21.61;64.84;99910.02;1895160;101;26102;-78
2022/06/10 03:10:08;;;;;;;;;;;;;;;;;;;;;
2022/06/10 03:14:28;;;;;;;6.28;5.87;;;;;;;21.52;64.79;99916.05;1849461;105;25794;-77
2022/06/10 03:23:40;;;;;;;5.42;5.03;;;;;;;21.48;64.57;99918.38;1784524;108;26288;-77
2022/06/10 03:27:58;;;;;;;5.87;4.92;;;;;;;21.46;64.46;99946.25;1843583;104;25768;-76
2022/06/10 03:31:44;;;;;;;7.53;4.10;;;;;;;21.44;64.31;99952.08;1831807;104;25441;-77
2022/06/10 03:35:44;;;;;;;6.58;4.37;;;;;;;21.48;64.22;99959.48;1781508;108;25869;-78
2022/06/10 03:39:45;;;;;;;;;;;;;;;;;;;;;
2022/06/10 03:43:17;;;;;;;;;;;;;;;21.60;63.84;99970.63;1758718;108;25782;-76
2022/06/10 03:47:12;;;;;;;5.37;3.77;;;;;;;21.63;63.82;99973.20;1776259;103;25880;-77
2022/06/10 03:50:39;;;;;;;6.80;3.90;;;;;;;21.69;63.71;99981.42;1892425;99;25633;-77
2022/06/10 03:54:06;;;;;;;3.87;3.60;;;;;;;21.74;63.56;99984.83;1977977;97;25822;-77
2022/06/10 03:57:53;;;;;;;4.22;3.92;;;;;;;21.79;63.55;99984.69;1957029;99;25925;-77
2022/06/10 04:06:02;;;;;;;4.40;3.92;;;;;;;21.96;63.47;99993.48;1987393;95;25986;-76
2022/06/10 04:09:35;;;;;;;5.33;3.47;;;;;;;22.04;63.31;99991.03;1921442;100;26268;-77
2022/06/10 04:13:20;;;;;;;5.62;3.92;;;;;;;22.09;63.29;99996.19;1932501;100;25814;-77
2022/06/10 04:16:52;;;;;;;4.15;3.75;;;;;;;22.21;63.28;99997.19;1965512;97;25666;-77
2022/06/10 04:20:40;;;;;;;6.35;4.10;;;;;;;22.32;63.10;100000.37;1989856;97;25894;-77
2022/06/10 04:24:13;;;;;;;;;;;;;;;;;;;;;
2022/06/10 04:27:52;;;;;;;4.22;3.92;;;;;;;22.45;62.91;100008.84;2115938;93;26418;-77
2022/06/10 04:31:40;;;;;;;4.33;4.03;;;;;;;22.52;62.93;100012.18;2121076;91;25886;-77
2022/06/10 04:35:25;;;;;;;5.45;4.10;;;;;;;22.54;62.84;100011.66;2116469;92;26279;-77
2022/06/10 04:39:47;;;;;;;4.25;3.90;;;;;;;22.62;62.72;100013.16;2124646;91;25789;-77
2022/06/10 04:43:19;;;;;;;8.40;4.35;;;;;;;22.71;62.65;100020.42;2068448;91;26307;-77
2022/06/10 04:46:53;;;;;;;5.35;4.75;;;;;;;22.73;62.47;100022.11;2099233;92;25745;-78
2022/06/10 04:51:01;;;;;;;4.78;4.37;;;;;;;22.80;62.34;100025.45;2118740;90;25837;-77
2022/06/10 04:58:52;;;;;;;5.17;4.53;;;;;;;23.05;62.10;100031.74;2165820;89;25769;-78
2022/06/10 05:03:04;;;;;;;6.92;4.87;;;;;;;23.15;61.87;100042.05;2203516;88;25876;-78
2022/06/10 05:15:20;;;;;;;6.33;5.10;;;;;;;23.27;61.13;100048.30;2164236;89;25810;-78
2022/06/10 05:18:57;;;;;;;5.87;5.25;;;;;;;23.31;61.15;100052.12;2166386;89;25958;-78
2022/06/10 05:22:53;;;;;;;6.20;5.67;;;;;;;23.44;60.98;100051.70;2157268;89;26111;-78
2022/06/10 05:26:34;;;;;;;;;;;;;;;;;;;;;
2022/06/10 05:37:55;;;;;;;5.78;4.87;;;;;;;23.95;60.14;100076.09;2221884;87;25735;-77
2022/06/10 05:46:26;;;;;;;;;;;;;;;;;;;;;
2022/06/10 05:49:50;;;;;;;9.98;4.90;;;;;;;24.32;59.11;100094.24;2163906;89;25860;-78
2022/06/10 06:02:38;;;;;;;;;;;;;;;;;;;;;
2022/06/10 06:06:00;;;;;;;5.85;4.15;;;;;;;25.14;57.79;100102.20;2063268;93;25740;-78
2022/06/10 06:10:05;;;;;;;;;;;;;;;;;;;;;
2022/06/10 06:13:13;;;;;;;6.72;3.58;;;;;;;25.47;56.97;100104.38;2027366;95;26037;-77
2022/06/10 06:16:48;;;;;;;5.72;3.80;;;;;;;25.68;56.37;100101.25;2049951;95;25935;-78
2022/06/10 06:20:45;;;;;;;3.85;3.52;;;;;;;25.88;55.99;100113.77;2042517;95;25873;-76
2022/06/10 06:24:06;;;;;;;4.20;3.25;;;;;;;26.08;55.49;100115.56;2114471;92;25783;-76
2022/06/10 06:27:36;;;;;;;3.87;3.58;;;;;;;26.31;54.96;100127.41;2114841;90;25703;-76
2022/06/10 06:31:03;;;;;;;6.05;3.70;;;;;;;26.48;54.54;100136.03;2110577;92;25777;-76
2022/06/10 06:34:26;;;;;;;9.63;4.22;;;;;;;26.59;54.05;100139.09;2103615;91;25342;-77
2022/06/10 06:38:02;;;;;;;8.68;3.90;;;;;;;26.74;53.81;100143.32;2130335;92;25692;-77
2022/06/10 06:41:25;;;;;;;29.80;7.15;;;;;;;26.88;53.78;100135.50;2132788;90;25820;-76
2022/06/10 06:44:46;;;;;;;15.50;5.55;;;;;;;27.05;53.81;100144.05;2123552;92;25951;-78
2022/06/10 06:48:18;;;;;;;19.17;5.47;;;;;;;27.24;53.68;100148.09;2118749;92;25911;-77
2022/06/10 06:51:52;;;;;;;11.55;4.20;;;;;;;27.50;53.14;100147.62;2181072;88;25809;-77
2022/06/10 06:55:13;;;;;;;10.98;4.42;;;;;;;27.70;52.53;100157.81;2179279;89;25744;-77
2022/06/10 06:58:44;;;;;;;12.82;4.42;;;;;;;27.91;51.93;100158.55;2184441;89;26010;-76
2022/06/10 07:02:05;;;;;;;5.70;3.35;;;;;;;28.05;51.53;100169.44;2143223;90;25821;-75
2022/06/10 07:05:35;;;;;;;6.42;3.22;;;;;;;28.20;51.08;100166.41;2133739;91;25923;-76
2022/06/10 07:08:58;;;;;;;3.45;3.15;;;;;;;28.35;50.61;100168.74;2131424;91;26144;-77
2022/06/10 07:12:22;;;;;;;7.60;3.02;;;;;;;28.48;50.03;100170.75;2139456;91;25376;-76
2022/06/10 07:15:43;;;;;;;4.87;2.95;;;;;;;28.71;49.80;100168.60;2133961;90;26075;-76
2022/06/10 07:19:04;;;;;;;2.75;2.55;;;;;;;28.91;49.28;100168.84;2136838;90;27518;-77
2022/06/10 07:22:26;;;;;;;3.17;2.52;;;;;;;28.87;48.90;100177.54;2143569;91;25462;-77
2022/06/10 07:26:01;;;;;;;6.03;2.27;;;;;;;28.84;48.49;100181.73;2142862;91;25900;-76
2022/06/10 07:29:23;;;;;;;3.27;2.10;;;;;;;28.81;48.49;100177.02;2152168;91;27058;-76
2022/06/10 07:32:45;;;;;;;3.95;2.20;;;;;;;28.89;48.02;100181.02;2123562;91;26025;-77
2022/06/10 07:36:29;;;;;;;3.30;2.47;;;;;;;28.99;47.70;100188.09;2098191;92;25764;-77
2022/06/10 07:39:51;;;;;;;7.35;2.40;;;;;;;29.18;47.43;100187.45;2132035;90;25924;-76
2022/06/10 07:43:41;;;;;;;4.53;2.40;;;;;;;29.36;47.14;100190.03;2117321;92;25673;-78
2022/06/10 07:47:23;;;;;;;2.47;2.27;;;;;;;29.45;46.86;100189.50;2064213;93;26174;-76
2022/06/10 07:51:02;;;;;;;5.15;2.35;;;;;;;29.63;46.42;100192.52;2083727;92;25697;-78
2022/06/10 07:54:48;;;;;;;4.33;1.98;;;;;;;29.76;46.00;100189.94;2082932;92;25744;-77
2022/06/10 07:58:19;;;;;;;6.67;2.22;;;;;;;29.87;45.76;100200.95;2081862;92;25908;-77
2022/06/10 08:01:45;;;;;;;2.80;1.87;;;;;;;30.08;45.47;100200.13;2100162;92;25747;-76
2022/06/10 08:05:16;;;;;;;2.02;1.90;;;;;;;30.15;45.24;100199.28;2109990;92;25790;-75
2022/06/10 08:08:45;;;;;;;6.20;2.27;;;;;;;30.30;44.95;100205.56;2076529;92;26066;-76
2022/06/10 08:12:21;;;;;;;2.02;1.82;;;;;;;30.47;44.63;100208.56;2177877;90;26095;-75
2022/06/10 08:15:46;;;;;;;4.47;1.67;;;;;;;30.43;44.45;100214.61;2183988;85;25942;-77
2022/06/10 08:19:07;;;;;;;1.80;1.65;;;;;;;30.45;44.15;100219.92;2187460;90;25791;-78
2022/06/10 08:22:37;;;;;;;3.10;1.70;;;;;;;30.65;44.07;100215.51;2183970;85;25861;-77
2022/06/10 08:26:14;;;;;;;1.98;1.72;;;;;;;30.90;43.55;100220.22;2233038;88;25664;-78
2022/06/10 08:29:41;;;;;;;2.85;1.40;;;;;;;31.15;42.84;100226.27;2219498;88;25901;-78
2022/06/10 08:33:05;;;;;;;1.30;1.20;;;;;;;31.49;42.19;100216.02;2224430;86;25665;-78
2022/06/10 08:36:33;;;;;;;1.12;1.10;;;;;;;31.76;41.79;100221.39;2224862;88;25751;-78
2022/06/10 08:39:57;;;;;;;3.20;1.40;;;;;;;31.80;40.75;100224.25;2139283;90;26031;-78
2022/06/10 08:43:53;;;;;;;1.80;1.10;;;;;;;31.93;40.72;100224.33;2137671;91;26469;-80
2022/06/10 08:48:46;;;;;;;1.95;1.20;;;;;;;32.16;40.26;100231.70;2156015;89;26355;-80
2022/06/10 08:52:23;;;;;;;;;;;;;;;;;;;;;
2022/06/10 08:56:47;;;;;;;;;;;;;;;;;;;;;
2022/06/10 09:00:52;;;;;;;4.00;1.70;;;;;;;32.71;38.31;100245.04;1971006;99;26549;-80
2022/06/10 09:04:42;;;;;;;4.25;1.90;;;;;;;32.65;38.30;100246.33;1969045;99;25834;-79
2022/06/10 09:08:29;;;;;;;3.20;1.65;;;;;;;32.33;38.66;100253.93;1966343;98;25846;-84
2022/06/10 09:12:32;;;;;;;5.50;1.65;;;;;;;32.17;39.28;100254.15;1974153;96;26492;-80
2022/06/10 09:21:06;;;;;;;3.50;1.30;;;;;;;31.67;39.80;100263.28;1924073;100;25936;-80
2022/06/10 09:37:50;;;;;;;5.20;1.20;;;;;;;32.38;38.84;100276.94;1886149;103;25888;-80
2022/06/10 09:42:08;;;;;;;1.42;1.17;;;;;;;32.53;38.17;100285.83;1840475;106;25877;-80
2022/06/10 09:46:02;;;;;;;3.27;1.20;;;;;;;32.58;38.16;100289.57;1842829;104;26071;-80
2022/06/10 09:50:22;;;;;;;2.35;1.10;;;;;;;32.83;38.07;100296.80;1847233;104;25912;-80
2022/06/10 09:54:41;;;;;;;1.37;1.27;;;;;;;32.77;38.04;100293.17;1971154;98;26248;-81
2022/06/10 09:58:48;;;;;;;;;;;;;;;;;;;;;
2022/06/10 10:07:13;;;;;;;1.67;1.10;;;;;;;32.33;38.80;100302.49;1873182;102;25934;-78
2022/06/10 10:11:47;;;;;;;3.05;1.20;;;;;;;32.20;38.61;100303.84;1924867;99;25845;-81
2022/06/10 10:15:55;;;;;;;2.17;1.30;;;;;;;32.30;38.51;100299.55;1961902;97;25819;-80
2022/06/10 10:33:15;;;;;;;3.00;1.20;;;;;;;32.28;38.07;100293.38;1986104;97;26695;-86
2022/06/10 10:41:27;;;;;;;;;;;;;;;;;;;;;
2022/06/10 10:45:43;;;;;;;1.47;1.10;;;;;;;32.15;37.65;100305.48;2046240;94;25818;-80
2022/06/10 10:49:43;;;;;;;2.05;1.17;;;;;;;32.18;37.90;100304.41;1993340;96;25756;-78
2022/06/10 10:53:54;;;;;;;;;;;;;;;;;;;;;
2022/06/10 10:57:41;;;;;;;1.30;1.20;;;;;;;32.38;37.34;100315.20;2016952;97;26073;-79
2022/06/10 11:04:56;;;;;;;1.37;1.27;;;;;;;32.03;37.70;100318.92;1996048;98;25759;-74
2022/06/10 11:08:39;;;;;;;2.92;1.15;;;;;;;32.09;38.00;100318.03;1920145;101;25821;-74
2022/06/10 11:12:15;;;;;;;1.82;1.30;;;;;;;32.19;38.40;100316.44;1886439;103;26739;-79
2022/06/10 11:15:36;;;;;;;0.88;0.80;;;;;;;32.19;38.17;100322.32;1882413;104;25873;-83
2022/06/10 11:19:12;;;;;;;1.52;1.10;;;;;;;32.04;38.21;100322.88;1858940;104;26062;-73
2022/06/10 11:22:39;;;;;;;2.35;1.02;;;;;;;32.00;38.22;100319.16;1859657;105;26674;-75
2022/06/10 11:26:16;;;;;;;1.02;0.93;;;;;;;31.86;38.09;100326.29;1859500;105;25891;-79
2022/06/10 11:29:50;;;;;;;8.15;1.20;;;;;;;31.43;38.53;100318.30;1861320;105;25915;-77
2022/06/10 11:33:22;;;;;;;1.30;1.20;;;;;;;31.15;38.90;100323.22;1850879;105;25966;-75
2022/06/10 11:36:54;;;;;;;1.15;0.90;;;;;;;30.81;39.44;100320.38;1812847;105;25912;-75
2022/06/10 11:40:43;;;;;;;1.45;0.90;;;;;;;30.67;40.02;100320.34;1856841;100;25557;-76
2022/06/10 11:44:20;;;;;;;1.37;1.00;;;;;;;30.70;40.06;100325.05;1963808;98;26027;-75
2022/06/10 11:48:22;;;;;;;1.80;1.20;;;;;;;30.97;40.03;100324.34;1970890;97;25870;-78
2022/06/10 11:51:58;;;;;;;1.67;0.88;;;;;;;30.89;40.04;100326.18;2015084;96;25809;-73
2022/06/10 11:55:41;;;;;;;2.15;0.90;;;;;;;30.66;40.22;100324.86;2050772;94;26619;-73
2022/06/10 12:03:27;;;;;;;2.25;1.10;;;;;;;30.60;40.51;100309.09;2025569;94;25814;-78
2022/06/10 12:06:59;;;;;;;1.10;0.90;;;;;;;30.33;40.74;100318.34;2103822;92;25729;-75
2022/06/10 12:20:48;;;;;;;2.75;1.52;;;;;;;31.09;40.00;100321.39;2104211;92;25784;-79
2022/06/10 12:24:36;;;;;;;1.65;1.55;;;;;;;31.56;39.81;100320.19;2099543;92;25782;-79
2022/06/10 12:32:37;;;;;;;6.53;1.85;;;;;;;31.34;39.60;100324.76;2036904;94;26040;-78
2022/06/10 12:40:37;;;;;;;2.10;1.90;;;;;;;30.50;40.27;100334.81;2031356;95;25923;-76
2022/06/10 12:44:16;;;;;;;3.45;1.87;;;;;;;30.25;40.94;100335.42;2045450;93;25277;-74
2022/06/10 12:47:48;;;;;;;2.40;2.20;;;;;;;30.35;41.17;100336.13;2078549;93;25671;-77
2022/06/10 12:51:34;;;;;;;4.45;2.60;;;;;;;30.17;41.24;100346.58;2060133;93;25875;-77
2022/06/10 12:55:39;;;;;;;3.80;2.90;;;;;;;29.82;41.56;100352.17;1992395;96;25732;-84
2022/06/10 12:59:23;;;;;;;3.30;3.10;;;;;;;29.44;42.26;100351.62;2007899;95;25850;-73
2022/06/10 13:03:16;;;;;;;3.10;2.90;;;;;;;29.14;42.79;100350.99;2045962;94;26416;-73
2022/06/10 13:07:37;;;;;;;5.50;3.00;;;;;;;29.01;43.26;100344.55;2063406;94;26057;-75
2022/06/10 13:11:19;;;;;;;2.87;2.40;;;;;;;28.76;43.50;100344.96;2043845;95;26164;-78
2022/06/10 13:19:53;;;;;;;1.72;1.47;;;;;;;28.97;43.61;100346.11;2042752;95;25373;-75
2022/06/10 13:23:46;;;;;;;;;;;;;;;;;;;;;
2022/06/10 13:27:26;;;;;;;;;;;;;;;;;;;;;
2022/06/10 13:31:40;;;;;;;1.27;0.68;;;;;;;30.15;42.47;100348.98;2078656;91;26363;-82
2022/06/10 13:35:50;;;;;;;2.25;0.50;;;;;;;30.46;41.95;100355.66;2093181;90;25850;-74
2022/06/10 13:39:40;;;;;;;0.72;0.70;;;;;;;30.40;41.16;100361.88;2090134;91;25806;-77
2022/06/10 13:43:03;;;;;;;;;;;;;;;29.97;41.55;100363.89;2058244;93;25870;-83
2022/06/10 13:46:29;;;;;;;0.70;0.70;;;;;;;29.81;41.96;100361.69;2055439;94;26378;-78
2022/06/10 13:54:29;;;;;;;2.75;0.80;;;;;;;29.58;42.06;100365.14;2046013;94;26096;-84
2022/06/10 13:58:32;;;;;;;1.25;0.90;;;;;;;29.34;42.28;100360.66;2080488;92;26404;-74
2022/06/10 14:02:21;;;;;;;1.10;1.00;;;;;;;29.21;42.45;100364.09;2132690;91;26193;-79
2022/06/10 14:05:44;;;;;;;0.90;0.90;;;;;;;29.08;42.67;100365.22;2128319;91;25531;-76
2022/06/10 14:09:29;;;;;;;2.98;0.90;;;;;;;28.95;42.81;100362.28;2211338;87;25959;-81
2022/06/10 14:13:08;;;;;;;2.27;1.50;;;;;;;28.78;42.84;100367.67;2240238;87;25824;-75
2022/06/10 14:16:42;;;;;;;1.65;1.55;;;;;;;28.56;43.29;100375.50;2232379;87;25730;-84
2022/06/10 14:20:17;;;;;;;2.95;1.47;;;;;;;28.41;43.83;100380.29;2236657;87;25918;-75
2022/06/10 14:24:26;;;;;;;1.60;1.50;;;;;;;28.33;44.07;100379.78;2236837;87;25372;-74
2022/06/10 14:28:17;;;;;;;3.90;2.05;;;;;;;28.28;44.52;100372.43;2234493;86;25924;-77
2022/06/10 14:32:04;;;;;;;3.35;2.35;;;;;;;28.27;44.67;100368.02;2261780;85;30970;-76
2022/06/10 14:36:05;;;;;;;;;;;;;;;;;;;;;
2022/06/10 14:39:28;;;;;;;1.00;1.00;;;;;;;28.00;44.65;100372.45;2277816;83;25750;-76
2022/06/10 14:43:25;;;;;;;1.07;1.05;;;;;;;27.74;44.82;100371.00;2183149;89;25973;-75
2022/06/10 14:47:51;;;;;;;;;;;;;;;;;;;;;
2022/06/10 14:51:48;;;;;;;1.50;1.40;;;;;;;27.45;44.81;100363.88;2186863;88;25850;-78
2022/06/10 14:56:03;;;;;;;;;;;;;;;;;;;;;
2022/06/10 15:03:55;;;;;;;2.02;1.82;;;;;;;27.15;45.04;100376.86;2079128;93;26020;-80
2022/06/10 15:07:53;;;;;;;2.12;2.02;;;;;;;26.91;45.50;100377.94;2091058;92;25754;-83
2022/06/10 15:11:46;;;;;;;3.17;2.72;;;;;;;26.84;45.44;100391.57;2061227;92;26484;-84
2022/06/10 15:16:13;;;;;;;2.10;2.00;;;;;;;26.64;45.92;100408.08;1967218;98;25968;-78
2022/06/10 15:19:58;;;;;;;2.62;2.42;;;;;;;26.50;46.35;100416.22;1967935;97;25828;-78
2022/06/10 15:27:48;;;;;;;;;;;;;;;;;;;;;
2022/06/10 15:31:06;;;;;;;5.70;1.87;;;;;;;26.04;46.44;100426.53;1758815;108;26674;-73
2022/06/10 15:34:31;;;;;;;1.80;1.70;;;;;;;25.87;46.47;100428.53;1802701;106;26683;-75
2022/06/10 15:41:40;;;;;;;2.25;2.12;;;;;;;25.81;47.18;100428.29;1942604;98;25974;-74
2022/06/10 15:48:45;;;;;;;2.37;1.80;;;;;;;25.75;47.50;100436.53;1874917;103;26453;-74
2022/06/10 15:52:31;;;;;;;3.00;2.08;;;;;;;25.71;47.58;100442.89;1878472;104;25955;-75
2022/06/10 16:00:14;;;;;;;;;;;;;;;;;;;;;
2022/06/10 16:03:27;;;;;;;4.87;1.87;;;;;;;25.65;47.75;100451.16;1813150;108;26098;-78
2022/06/10 16:06:51;;;;;;;2.75;2.33;;;;;;;25.63;47.87;100453.87;1781482;110;26151;-74
2022/06/10 16:10:17;;;;;;;2.58;2.37;;;;;;;25.61;47.75;100456.19;1788886;108;25779;-74
2022/06/10 16:13:42;;;;;;;2.80;2.60;;;;;;;25.62;47.61;100455.28;1802582;107;26247;-77
2022/06/10 16:17:29;;;;;;;2.87;2.08;;;;;;;25.58;47.70;100456.30;1823475;107;25906;-80
2022/06/10 16:21:19;;;;;;;;;;;;;;;;;;;;;
2022/06/10 16:25:00;;;;;;;2.10;2.00;;;;;;;25.62;48.00;100454.81;1867753;104;25952;-79
2022/06/10 16:36:44;;;;;;;2.30;2.08;;;;;;;25.67;48.30;100450.63;1846283;103;26074;-78
2022/06/10 16:40:15;;;;;;;4.58;2.83;;;;;;;25.68;48.58;100449.68;1841069;104;34924;-74
2022/06/10 16:43:37;;;;;;;2.98;2.42;;;;;;;25.71;48.26;100450.91;1860498;104;25412;-73
2022/06/10 16:47:09;;;;;;;4.37;2.37;;;;;;;25.75;48.01;100455.22;1879827;102;25957;-74
2022/06/10 16:50:45;;;;;;;2.67;2.47;;;;;;;25.74;47.53;100460.14;1897153;101;25987;-73
2022/06/10 16:54:07;;;;;;;5.22;2.72;;;;;;;25.74;47.24;100461.94;1895480;101;26068;-79
2022/06/10 16:57:48;;;;;;;2.62;2.30;;;;;;;25.70;47.04;100462.52;1876194;102;25900;-78
2022/06/10 17:01:17;;;;;;;6.08;2.70;;;;;;;25.67;47.12;100462.17;1881871;103;26598;-73
2022/06/10 17:04:57;;;;;;;2.77;2.55;;;;;;;25.72;47.46;100463.35;1880992;102;25965;-79
2022/06/10 17:08:38;;;;;;;3.67;2.70;;;;;;;25.75;47.52;100463.23;1958618;98;25772;-76
2022/06/10 17:12:48;;;;;;;5.87;2.25;;;;;;;25.75;47.54;100458.33;2080754;92;25836;-84
2022/06/10 17:16:28;;;;;;;3.33;2.95;;;;;;;25.70;47.73;100465.20;2080662;93;25855;-76
2022/06/10 17:20:00;;;;;;;3.02;2.72;;;;;;;25.64;47.62;100462.75;2102515;92;25412;-81
2022/06/10 17:23:33;;;;;;;3.12;2.55;;;;;;;25.61;47.53;100461.52;2130092;91;26042;-75
2022/06/10 17:26:57;;;;;;;4.83;2.80;;;;;;;25.57;47.53;100455.43;2123945;91;26411;-77
2022/06/10 17:30:47;;;;;;;4.28;2.60;;;;;;;25.53;47.81;100452.47;2149577;90;25741;-72
2022/06/10 17:34:09;;;;;;;2.75;2.30;;;;;;;25.44;47.82;100459.01;2143880;91;25760;-76
2022/06/10 17:37:45;;;;;;;2.47;2.33;;;;;;;25.35;47.98;100461.17;2130688;92;25817;-73
2022/06/10 17:41:43;;;;;;;2.70;2.50;;;;;;;25.31;48.01;100463.08;2108870;92;25718;-73
2022/06/10 17:45:31;;;;;;;6.25;2.83;;;;;;;25.24;48.14;100468.67;2121007;92;25681;-77
2022/06/10 17:48:59;;;;;;;2.67;2.47;;;;;;;25.13;48.47;100469.05;2108976;91;25889;-72
2022/06/10 17:52:36;;;;;;;3.92;3.50;;;;;;;25.10;48.70;100466.46;2140598;91;25867;-74
2022/06/10 17:56:00;;;;;;;3.50;2.83;;;;;;;25.05;48.97;100458.63;2189820;86;25901;-72
2022/06/10 17:59:42;;;;;;;3.92;3.62;;;;;;;25.04;49.01;100465.33;2260327;86;26012;-74
2022/06/10 18:03:23;;;;;;;3.83;3.20;;;;;;;25.01;48.97;100468.11;2216402;86;25827;-77
2022/06/10 18:07:00;;;;;;;3.50;3.20;;;;;;;24.93;49.10;100467.05;2256853;86;25781;-74
2022/06/10 18:10:31;;;;;;;3.95;3.65;;;;;;;24.86;49.25;100461.05;2257611;86;26174;-72
2022/06/10 18:17:54;;;;;;;6.03;3.05;;;;;;;24.81;49.38;100458.16;2259887;86;25627;-76
2022/06/10 18:21:23;;;;;;;3.67;3.20;;;;;;;24.72;49.44;100468.18;2256335;86;25731;-72
2022/06/10 18:24:51;;;;;;;8.70;3.62;;;;;;;24.68;49.58;100475.02;2255613;86;25695;-77
2022/06/10 18:28:16;;;;;;;5.17;2.15;;;;;;;24.56;49.71;100469.61;2256333;86;25715;-81
2022/06/10 18:31:41;;;;;;;2.72;2.52;;;;;;;24.48;49.98;100469.00;2261902;86;25649;-73
2022/06/10 18:35:20;;;;;;;3.75;2.77;;;;;;;24.39;50.11;100470.58;2266394;86;25798;-74
2022/06/10 18:38:50;;;;;;;9.90;3.00;;;;;;;24.34;50.21;100469.41;2279991;85;25875;-73
2022/06/10 18:42:17;;;;;;;7.95;2.80;;;;;;;24.30;50.34;100483.76;2268991;85;25807;-78
2022/06/10 18:45:39;;;;;;;3.42;2.50;;;;;;;24.32;50.47;100490.36;2259468;81;25633;-86
2022/06/10 18:49:23;;;;;;;3.52;2.55;;;;;;;24.25;50.50;100506.53;2263685;86;25773;-72
2022/06/10 18:52:46;;;;;;;3.33;2.47;;;;;;;24.20;50.62;100511.61;2261976;86;26440;-77
2022/06/10 18:56:33;;;;;;;4.87;2.92;;;;;;;24.13;50.71;100530.90;2253122;86;26059;-74
2022/06/10 18:59:57;;;;;;;2.90;2.70;;;;;;;24.08;50.84;100515.96;2183957;87;25841;-77
2022/06/10 19:03:54;;;;;;;6.72;3.00;;;;;;;24.08;50.95;100526.15;2192164;87;26548;-71
2022/06/10 19:07:20;;;;;;;3.72;2.17;;;;;;;23.99;51.12;100531.28;2148650;89;25839;-79
2022/06/10 19:10:50;;;;;;;4.62;4.22;;;;;;;23.96;51.22;100538.05;2202353;88;26295;-74
2022/06/10 19:14:12;;;;;;;6.17;3.02;;;;;;;23.94;51.35;100533.69;2217949;87;26001;-78
2022/06/10 19:17:46;;;;;;;2.92;2.62;;;;;;;23.86;51.58;100533.91;2248167;87;25762;-73
2022/06/10 19:21:40;;;;;;;5.78;3.00;;;;;;;23.85;51.83;100543.26;2222801;87;25924;-78
2022/06/10 19:25:34;;;;;;;4.75;2.70;;;;;;;23.91;51.94;100544.42;2179362;89;25691;-77
2022/06/10 19:28:54;;;;;;;7.20;3.10;;;;;;;23.95;51.92;100560.25;2068197;94;26113;-77
2022/06/10 19:32:19;;;;;;;3.85;3.42;;;;;;;23.93;52.16;100561.23;2053800;94;26027;-76
2022/06/10 19:36:22;;;;;;;3.42;3.02;;;;;;;23.91;52.23;100553.28;2053019;93;25449;-77
2022/06/10 19:39:41;;;;;;;6.97;3.10;;;;;;;23.88;52.18;100553.36;2103533;91;26146;-74
2022/06/10 19:43:16;;;;;;;6.22;2.77;;;;;;;23.94;52.52;100557.65;2113320;92;25803;-74
2022/06/10 19:46:38;;;;;;;3.00;2.80;;;;;;;23.97;52.47;100563.76;2093226;93;25720;-75
2022/06/10 19:50:38;;;;;;;3.08;2.80;;;;;;;24.00;52.40;100560.14;2091596;93;25960;-75
2022/06/10 19:54:13;;;;;;;7.33;2.92;;;;;;;24.00;52.45;100563.67;2090939;93;25944;-75
2022/06/10 19:57:36;;;;;;;3.17;2.40;;;;;;;24.00;52.44;100565.00;2106504;91;26585;-74
2022/06/10 20:01:22;;;;;;;4.28;2.65;;;;;;;23.99;52.45;100566.36;2169371;89;25823;-74
2022/06/10 20:05:10;;;;;;;5.50;2.55;;;;;;;23.97;52.43;100566.88;2214263;88;27026;-73
2022/06/10 20:09:08;;;;;;;3.05;2.72;;;;;;;23.94;52.37;100571.83;2226562;86;26312;-78
2022/06/10 20:12:54;;;;;;;4.17;3.05;;;;;;;23.89;52.45;100580.39;2271194;86;25871;-75
2022/06/10 20:20:47;;;;;;;;;;;;;;;;;;;;;
2022/06/10 20:24:36;;;;;;;3.70;3.40;;;;;;;23.80;52.40;100587.33;2124521;91;25689;-77
2022/06/10 20:28:01;;;;;;;4.55;2.65;;;;;;;23.75;52.46;100583.91;2136929;91;25808;-80
2022/06/10 20:32:05;;;;;;;;;;;;;;;;;;;;;
2022/06/10 20:35:59;;;;;;;3.60;3.30;;;;;;;23.74;52.46;100588.36;2139275;91;25781;-76
2022/06/10 20:39:46;;;;;;;4.70;2.92;;;;;;;23.67;52.48;100589.41;2104777;92;25885;-74
2022/06/10 20:43:42;;;;;;;8.13;3.65;;;;;;;23.55;52.70;100595.05;2113176;91;26478;-74
2022/06/10 20:47:34;;;;;;;5.03;3.60;;;;;;;23.49;52.88;100596.54;2120626;91;25824;-74
2022/06/10 20:51:17;;;;;;;5.83;3.20;;;;;;;23.44;52.92;100591.81;2102355;93;25775;-76
2022/06/10 20:55:02;;;;;;;4.97;3.85;;;;;;;23.41;53.09;100595.88;2067666;93;25796;-74
2022/06/10 20:58:31;;;;;;;4.15;3.80;;;;;;;23.36;53.36;100593.34;1997385;97;25893;-75
2022/06/10 21:02:11;;;;;;;4.28;3.90;;;;;;;23.32;53.40;100591.23;1990443;97;26451;-78
2022/06/10 21:09:20;;;;;;;5.47;3.92;;;;;;;23.29;53.62;100586.44;2041473;95;25841;-75
2022/06/10 21:12:45;;;;;;;10.18;3.67;;;;;;;23.28;53.59;100588.66;2059283;93;25920;-74
2022/06/10 21:16:29;;;;;;;17.20;4.87;;;;;;;23.21;53.73;100591.06;2076037;91;25484;-75
2022/06/10 21:20:16;;;;;;;7.17;3.80;;;;;;;23.16;53.81;100589.86;2088641;93;25774;-79
2022/06/10 21:24:14;;;;;;;8.95;3.50;;;;;;;23.26;54.30;100592.70;2015834;96;25956;-88
2022/06/10 21:28:16;;;;;;;4.65;3.55;;;;;;;23.48;54.17;100590.34;2055989;92;26068;-88
2022/06/10 21:32:53;;;;;;;5.15;3.35;;;;;;;23.64;54.26;100589.50;2007071;96;25755;-89
2022/06/10 21:37:07;;;;;;;;;;;;;;;;;;;;;
2022/06/10 21:40:54;;;;;;;3.85;2.87;;;;;;;23.86;53.74;100576.95;2030755;96;25742;-83